Time;durP1;ratioP1;P1;durP2;ratioP2;P2;SDS_P1;SDS_P2;PMS_P1;PMS_P2;Temp;Humidity;BMP_temperature;BMP_pressure;BME280_temperature;BME280_humidity;BME280_pressure;Samples;Min_cycle;Max_cycle;Signal;HPM_P1;HPM_P2
2022/07/25 00:00:40;;;;;;;10.43;7.50;;;19.30;84.60;;;;;;5012750;28;20117;-81
2022/07/25 00:03:06;;;;;;;10.20;7.85;;;19.30;84.70;;;;;;5031555;28;20033;-80
2022/07/25 00:05:31;;;;;;;8.55;7.65;;;19.20;84.90;;;;;;5022062;28;20033;-81
2022/07/25 00:07:57;;;;;;;9.68;8.38;;;19.20;85.40;;;;;;5037569;28;20072;-80
2022/07/25 00:10:23;;;;;;;10.02;8.52;;;19.20;85.50;;;;;;5040652;28;20384;-80
2022/07/25 00:12:49;;;;;;;10.07;8.23;;;19.20;85.50;;;;;;5035156;28;20053;-81
2022/07/25 00:15:15;;;;;;;10.30;8.15;;;19.10;85.40;;;;;;5035539;28;20033;-81
2022/07/25 00:17:42;;;;;;;10.15;8.55;;;19.10;85.80;;;;;;5009958;28;20029;-80
2022/07/25 00:20:08;;;;;;;12.52;8.80;;;19.10;86.00;;;;;;5032736;28;20057;-78
2022/07/25 00:22:34;;;;;;;8.85;7.93;;;19.20;86.70;;;;;;5032017;28;20279;-81
2022/07/25 00:25:00;;;;;;;11.80;9.05;;;19.10;86.80;;;;;;5036504;28;20279;-82
2022/07/25 00:27:26;;;;;;;12.15;8.85;;;19.10;86.90;;;;;;5000651;28;20034;-82
2022/07/25 00:29:51;;;;;;;11.38;8.50;;;19.10;87.10;;;;;;5021134;28;20116;-81
2022/07/25 00:32:17;;;;;;;10.68;8.50;;;19.10;86.70;;;;;;5023579;28;20521;-80
2022/07/25 00:34:43;;;;;;;9.93;8.82;;;19.10;86.70;;;;;;5033089;28;20040;-80
2022/07/25 00:37:09;;;;;;;11.20;9.13;;;19.00;86.60;;;;;;5028333;28;20110;-80
2022/07/25 00:39:35;;;;;;;8.68;7.80;;;19.00;87.50;;;;;;5014552;28;20041;-80
2022/07/25 00:42:01;;;;;;;10.50;8.65;;;18.90;87.80;;;;;;4998114;28;20057;-80
2022/07/25 00:44:31;;;;;;;10.43;8.70;;;18.90;88.30;;;;;;5031549;28;20033;-81
2022/07/25 00:46:58;;;;;;;9.57;8.50;;;18.80;88.30;;;;;;5000819;28;20097;-79
2022/07/25 00:49:25;;;;;;;9.77;8.07;;;18.80;88.40;;;;;;5014690;28;20030;-81
2022/07/25 00:51:52;;;;;;;9.60;8.20;;;18.80;89.00;;;;;;5036876;28;20029;-80
2022/07/25 00:54:18;;;;;;;9.80;7.50;;;18.70;88.80;;;;;;5023915;28;20048;-79
2022/07/25 00:56:44;;;;;;;9.90;8.15;;;18.70;89.10;;;;;;5003176;28;20037;-81
2022/07/25 00:59:10;;;;;;;9.25;7.82;;;18.70;89.30;;;;;;5027714;28;20033;-80
2022/07/25 01:01:37;;;;;;;10.45;8.27;;;18.70;89.20;;;;;;5007884;28;20037;-80
2022/07/25 01:04:04;;;;;;;9.48;8.40;;;18.60;89.60;;;;;;5033756;28;20036;-80
2022/07/25 01:06:31;;;;;;;11.23;8.43;;;18.60;89.80;;;;;;5044812;28;20030;-77
2022/07/25 01:08:57;;;;;;;10.73;8.70;;;18.60;89.90;;;;;;5022427;28;20025;-80
2022/07/25 01:11:23;;;;;;;11.80;8.60;;;18.60;90.10;;;;;;5007613;28;20511;-80
2022/07/25 01:13:49;;;;;;;10.75;8.20;;;18.50;90.00;;;;;;5018381;28;20120;-80
2022/07/25 01:16:15;;;;;;;10.48;8.63;;;18.50;90.10;;;;;;5032178;28;20065;-79
2022/07/25 01:18:41;;;;;;;11.65;8.88;;;18.50;90.20;;;;;;5030240;28;20025;-81
2022/07/25 01:21:07;;;;;;;10.50;8.23;;;18.50;90.30;;;;;;5003018;28;20124;-78
2022/07/25 01:23:33;;;;;;;10.13;8.10;;;18.50;90.60;;;;;;5033670;28;20029;-79
2022/07/25 01:25:58;;;;;;;10.45;8.60;;;18.50;90.60;;;;;;5017577;28;20038;-79
2022/07/25 01:28:24;;;;;;;10.75;8.63;;;18.50;90.70;;;;;;4998602;28;20033;-81
2022/07/25 01:30:50;;;;;;;11.23;8.60;;;18.50;90.80;;;;;;5000156;28;20061;-79
2022/07/25 01:33:21;;;;;;;10.48;7.88;;;18.50;90.90;;;;;;5033984;28;20399;-80
2022/07/25 01:35:48;;;;;;;10.70;7.90;;;18.50;90.90;;;;;;5027824;28;20056;-79
2022/07/25 01:38:15;;;;;;;9.15;8.18;;;18.50;90.80;;;;;;5039132;28;20028;-80
2022/07/25 01:40:41;;;;;;;10.82;8.63;;;18.50;90.90;;;;;;5039912;28;20036;-79
2022/07/25 01:43:07;;;;;;;11.02;8.35;;;18.50;91.10;;;;;;5033422;28;20033;-78
2022/07/25 01:45:33;;;;;;;9.38;8.25;;;18.50;91.20;;;;;;5033752;28;20022;-79
2022/07/25 01:47:59;;;;;;;9.88;8.45;;;18.50;91.30;;;;;;5017097;28;20038;-78
2022/07/25 01:50:25;;;;;;;10.13;8.93;;;18.40;91.60;;;;;;5033492;28;20092;-79
2022/07/25 01:52:51;;;;;;;12.25;9.40;;;18.40;91.60;;;;;;5034987;28;20116;-80
2022/07/25 01:55:17;;;;;;;11.27;8.98;;;18.40;91.80;;;;;;5042197;28;20606;-81
2022/07/25 01:57:43;;;;;;;9.55;8.40;;;18.40;91.80;;;;;;5040177;28;20025;-81
2022/07/25 02:00:12;;;;;;;12.05;9.55;;;18.40;92.20;;;;;;5001175;28;20153;-80
2022/07/25 02:02:38;;;;;;;11.40;9.93;;;18.30;92.30;;;;;;5038923;28;20021;-81
2022/07/25 02:05:05;;;;;;;10.60;9.50;;;18.30;92.10;;;;;;5042616;28;20518;-80
2022/07/25 02:07:31;;;;;;;10.52;8.98;;;18.30;92.40;;;;;;5012283;28;20040;-79
2022/07/25 02:09:57;;;;;;;11.52;9.65;;;18.20;92.30;;;;;;4996544;28;20404;-80
2022/07/25 02:12:22;;;;;;;12.60;9.70;;;18.20;92.30;;;;;;5014651;28;20523;-78
2022/07/25 02:14:48;;;;;;;10.75;9.35;;;18.30;92.60;;;;;;5033959;28;20034;-79
2022/07/25 02:17:15;;;;;;;10.90;9.55;;;18.20;92.60;;;;;;5031965;28;20416;-79
2022/07/25 02:19:41;;;;;;;11.00;9.13;;;18.20;92.70;;;;;;5028012;28;20403;-79
2022/07/25 02:22:06;;;;;;;9.70;8.52;;;18.20;93.10;;;;;;5006459;28;20038;-80
2022/07/25 02:24:32;;;;;;;12.05;8.98;;;18.20;93.40;;;;;;5021612;28;20056;-79
2022/07/25 02:26:58;;;;;;;14.85;9.80;;;18.20;93.80;;;;;;5034004;28;20057;-80
2022/07/25 02:29:24;;;;;;;11.02;9.50;;;18.10;93.90;;;;;;5023923;28;20440;-79
2022/07/25 02:31:51;;;;;;;12.00;9.27;;;18.10;94.10;;;;;;5016700;28;20037;-80
2022/07/25 02:34:17;;;;;;;11.10;8.52;;;18.10;94.10;;;;;;5018255;28;20041;-80
2022/07/25 02:36:44;;;;;;;10.35;9.25;;;18.10;93.90;;;;;;5015316;28;20029;-80
2022/07/25 02:39:11;;;;;;;10.38;8.60;;;18.10;93.80;;;;;;5029479;28;20037;-82
2022/07/25 02:41:36;;;;;;;11.02;8.88;;;18.10;94.10;;;;;;5018630;28;20406;-78
2022/07/25 02:44:03;;;;;;;12.38;9.00;;;18.10;94.00;;;;;;5003635;28;20112;-80
2022/07/25 02:46:29;;;;;;;10.95;8.65;;;18.10;93.90;;;;;;5018474;28;20091;-81
2022/07/25 02:48:54;;;;;;;9.77;8.32;;;18.00;94.10;;;;;;5029786;28;20038;-81
2022/07/25 02:51:20;;;;;;;11.23;8.98;;;18.00;94.10;;;;;;5031902;28;20032;-80
2022/07/25 02:53:46;;;;;;;11.65;8.93;;;18.00;94.40;;;;;;5036904;28;20435;-81
2022/07/25 02:56:12;;;;;;;10.15;8.82;;;18.00;94.70;;;;;;4990388;28;20025;-81
2022/07/25 02:58:38;;;;;;;10.82;9.20;;;17.90;94.80;;;;;;5018261;28;20034;-80
2022/07/25 03:01:04;;;;;;;13.00;9.38;;;17.90;95.10;;;;;;5036182;28;20552;-82
2022/07/25 03:03:29;;;;;;;10.40;9.00;;;17.90;95.20;;;;;;5038146;28;20040;-80
2022/07/25 03:05:55;;;;;;;10.95;8.65;;;17.80;95.30;;;;;;5032179;28;20099;-80
2022/07/25 03:08:21;;;;;;;10.25;8.82;;;17.80;95.10;;;;;;5016230;28;20442;-80
2022/07/25 03:10:47;;;;;;;11.35;8.90;;;17.80;95.40;;;;;;4981642;28;20064;-80
2022/07/25 03:13:12;;;;;;;10.75;8.68;;;17.80;95.10;;;;;;5039133;28;20109;-78
2022/07/25 03:15:38;;;;;;;11.07;8.50;;;17.80;95.50;;;;;;4999505;28;20084;-81
2022/07/25 03:18:04;;;;;;;11.43;9.15;;;17.80;95.70;;;;;;5030464;28;20041;-81
2022/07/25 03:20:30;;;;;;;10.52;8.55;;;17.80;96.00;;;;;;5033833;28;20026;-81
2022/07/25 03:22:56;;;;;;;10.98;9.30;;;17.70;96.10;;;;;;5036107;28;20037;-79
2022/07/25 03:25:21;;;;;;;11.40;8.90;;;17.70;96.70;;;;;;5018949;28;20070;-81
2022/07/25 03:27:47;;;;;;;10.95;8.93;;;17.70;96.70;;;;;;5030569;28;20034;-82
2022/07/25 03:30:13;;;;;;;12.88;9.27;;;17.70;96.70;;;;;;5019428;28;20026;-80
2022/07/25 03:32:39;;;;;;;10.02;8.90;;;17.70;96.80;;;;;;5014448;28;20041;-80
2022/07/25 03:35:06;;;;;;;12.18;8.43;;;17.70;97.00;;;;;;5031113;28;20144;-81
2022/07/25 03:37:32;;;;;;;9.85;8.55;;;17.70;97.20;;;;;;5015882;28;20523;-81
2022/07/25 03:39:58;;;;;;;9.80;8.20;;;17.70;97.60;;;;;;5036006;28;20043;-82
2022/07/25 03:42:24;;;;;;;11.57;9.02;;;17.70;97.60;;;;;;5008031;28;20100;-81
2022/07/25 03:44:49;;;;;;;10.88;8.75;;;17.60;97.80;;;;;;5032550;28;20092;-81
2022/07/25 03:47:15;;;;;;;10.18;8.90;;;17.70;97.70;;;;;;4997275;28;20068;-82
2022/07/25 03:49:41;;;;;;;10.27;9.05;;;17.60;97.70;;;;;;4980931;28;20064;-82
2022/07/25 03:52:06;;;;;;;10.15;8.45;;;17.60;97.60;;;;;;4994660;28;20042;-78
2022/07/25 03:54:33;;;;;;;12.10;8.93;;;17.70;97.80;;;;;;5005091;28;20183;-80
2022/07/25 03:56:59;;;;;;;13.27;8.52;;;17.60;98.20;;;;;;4998309;28;20573;-80
2022/07/25 03:59:25;;;;;;;11.65;8.73;;;17.60;98.00;;;;;;5003417;28;20119;-80
2022/07/25 04:01:51;;;;;;;11.32;8.90;;;17.60;98.30;;;;;;5013628;28;20061;-79
2022/07/25 04:04:18;;;;;;;11.57;8.93;;;17.60;98.70;;;;;;5013963;28;20053;-79
2022/07/25 04:06:45;;;;;;;11.27;9.32;;;17.60;99.10;;;;;;5029782;28;20029;-79
2022/07/25 04:09:12;;;;;;;9.93;8.80;;;17.60;99.30;;;;;;5028494;28;20036;-79
2022/07/25 04:11:38;;;;;;;10.88;8.82;;;17.60;99.60;;;;;;5030695;28;20030;-80
2022/07/25 04:14:04;;;;;;;10.80;9.18;;;17.60;99.80;;;;;;5031114;28;20135;-79
2022/07/25 04:16:30;;;;;;;10.07;8.65;;;17.60;99.90;;;;;;5031260;28;20057;-81
2022/07/25 04:18:56;;;;;;;11.07;9.02;;;17.70;99.90;;;;;;5031517;28;20034;-81
2022/07/25 04:21:22;;;;;;;9.85;8.77;;;17.70;99.80;;;;;;5033981;28;20364;-80
2022/07/25 04:23:48;;;;;;;11.73;8.18;;;17.90;99.70;;;;;;5037388;28;20048;-80
2022/07/25 04:26:15;;;;;;;11.18;8.77;;;18.00;99.40;;;;;;5051059;28;20021;-81
2022/07/25 04:28:41;;;;;;;9.68;8.27;;;18.10;99.60;;;;;;5057743;28;20013;-81
2022/07/25 04:31:07;;;;;;;12.93;8.75;;;18.20;99.50;;;;;;5027737;28;20037;-80
2022/07/25 04:33:36;;;;;;;10.38;8.45;;;18.30;99.50;;;;;;5030483;28;20075;-80
2022/07/25 04:36:02;;;;;;;12.38;8.38;;;18.40;98.90;;;;;;5014645;28;20393;-81
2022/07/25 04:38:28;;;;;;;11.70;8.55;;;18.50;98.60;;;;;;5016252;28;20163;-82
2022/07/25 04:40:53;;;;;;;11.40;9.13;;;18.50;98.60;;;;;;5024053;28;20564;-81
2022/07/25 04:43:20;;;;;;;10.27;8.65;;;18.60;98.80;;;;;;5034207;28;20033;-80
2022/07/25 04:45:46;;;;;;;12.20;8.90;;;18.70;98.70;;;;;;5037283;28;20480;-81
2022/07/25 04:48:11;;;;;;;10.30;9.02;;;18.80;98.10;;;;;;5020039;28;20033;-81
2022/07/25 04:50:37;;;;;;;13.50;8.57;;;18.90;98.10;;;;;;5002024;28;20400;-80
2022/07/25 04:53:04;;;;;;;10.32;8.07;;;19.00;97.90;;;;;;5032018;28;20466;-80
2022/07/25 04:55:31;;;;;;;12.73;10.23;;;19.00;97.70;;;;;;5032707;28;20026;-81
2022/07/25 04:57:57;;;;;;;11.80;9.32;;;19.10;97.30;;;;;;5037432;28;20088;-80
2022/07/25 05:00:23;;;;;;;11.80;8.68;;;19.30;97.20;;;;;;5038018;28;20033;-81
2022/07/25 05:02:50;;;;;;;11.63;9.00;;;19.40;96.70;;;;;;5037790;28;20494;-80
2022/07/25 05:05:16;;;;;;;11.35;8.85;;;19.60;96.40;;;;;;5038711;28;20030;-80
2022/07/25 05:07:42;;;;;;;10.68;9.15;;;19.70;96.10;;;;;;5039229;28;20097;-81
2022/07/25 05:10:08;;;;;;;10.80;8.40;;;19.70;95.70;;;;;;5037233;28;20061;-81
2022/07/25 05:12:34;;;;;;;13.98;10.70;;;19.90;95.50;;;;;;5044172;28;20091;-80
2022/07/25 05:15:01;;;;;;;10.45;8.52;;;20.00;95.20;;;;;;5042178;28;20098;-80
2022/07/25 05:17:27;;;;;;;9.52;8.52;;;20.10;95.50;;;;;;5033437;28;20025;-80
2022/07/25 05:19:52;;;;;;;10.52;8.43;;;20.20;95.40;;;;;;5019058;28;20041;-81
2022/07/25 05:22:18;;;;;;;12.73;8.68;;;20.30;95.20;;;;;;4999796;28;20036;-81
2022/07/25 05:24:44;;;;;;;11.10;8.50;;;20.40;95.20;;;;;;5033371;28;20040;-81
2022/07/25 05:27:10;;;;;;;11.30;9.20;;;20.40;95.10;;;;;;5032135;28;20037;-82
2022/07/25 05:29:35;;;;;;;9.85;8.10;;;20.50;95.20;;;;;;5031958;28;20033;-81
2022/07/25 05:32:01;;;;;;;10.23;8.95;;;20.60;94.70;;;;;;5037886;28;20033;-83
2022/07/25 05:34:27;;;;;;;9.50;8.50;;;20.80;94.40;;;;;;5037860;28;20117;-81
2022/07/25 05:36:52;;;;;;;10.60;8.95;;;20.90;94.30;;;;;;5037852;28;20099;-79
2022/07/25 05:39:18;;;;;;;10.82;8.50;;;21.10;94.10;;;;;;5018777;28;20033;-81
2022/07/25 05:41:44;;;;;;;11.85;8.40;;;21.40;93.30;;;;;;5036946;28;20029;-81
2022/07/25 05:44:10;;;;;;;10.23;8.52;;;21.70;93.10;;;;;;5032982;28;20064;-80
2022/07/25 05:46:36;;;;;;;10.45;8.35;;;22.00;92.10;;;;;;5034467;28;20026;-80
2022/07/25 05:49:02;;;;;;;12.80;9.30;;;22.40;91.80;;;;;;5036958;28;20496;-81
2022/07/25 05:51:27;;;;;;;11.80;8.65;;;22.80;90.50;;;;;;5037268;28;20028;-81
2022/07/25 05:53:53;;;;;;;10.07;7.68;;;23.10;89.50;;;;;;5017255;28;20059;-80
2022/07/25 05:56:19;;;;;;;10.18;8.20;;;23.30;88.80;;;;;;5034092;28;20068;-80
2022/07/25 05:58:45;;;;;;;10.52;9.00;;;23.60;87.10;;;;;;5017896;28;20116;-82
2022/07/25 06:01:12;;;;;;;9.40;8.10;;;23.80;85.90;;;;;;5019639;28;20053;-82
2022/07/25 06:03:38;;;;;;;8.55;7.28;;;24.00;85.10;;;;;;5028571;28;20038;-80
2022/07/25 06:06:05;;;;;;;7.93;7.15;;;24.20;83.50;;;;;;5031805;28;20089;-81
2022/07/25 06:08:32;;;;;;;9.68;7.78;;;24.40;83.20;;;;;;5013933;28;20049;-84
2022/07/25 06:10:58;;;;;;;10.85;7.38;;;24.70;82.00;;;;;;5033131;28;20132;-81
2022/07/25 06:13:25;;;;;;;10.27;7.88;;;25.00;81.20;;;;;;5036007;28;20025;-81
2022/07/25 06:15:52;;;;;;;9.73;7.53;;;25.30;78.40;;;;;;5045537;28;20514;-81
2022/07/25 06:18:18;;;;;;;8.13;7.32;;;25.50;78.30;;;;;;5031041;28;20108;-81
2022/07/25 06:20:43;;;;;;;10.38;7.65;;;25.60;76.70;;;;;;5034505;28;20455;-81
2022/07/25 06:23:10;;;;;;;9.32;7.40;;;25.80;75.80;;;;;;5037343;28;20041;-81
2022/07/25 06:25:35;;;;;;;8.30;7.25;;;26.10;75.20;;;;;;5005343;28;20507;-80
2022/07/25 06:28:01;;;;;;;7.30;6.60;;;26.40;74.30;;;;;;5016176;28;20037;-79
2022/07/25 06:30:27;;;;;;;8.77;7.53;;;26.70;71.70;;;;;;5013856;28;20026;-81
2022/07/25 06:32:53;;;;;;;7.38;6.50;;;26.80;71.40;;;;;;5027880;28;20112;-82
2022/07/25 06:35:19;;;;;;;7.85;6.50;;;27.20;69.90;;;;;;5033405;28;20223;-79
2022/07/25 06:37:45;;;;;;;8.25;6.65;;;27.60;69.90;;;;;;5040415;28;20049;-80
2022/07/25 06:40:11;;;;;;;7.38;6.53;;;27.60;67.70;;;;;;5040399;28;20095;-83
2022/07/25 06:42:38;;;;;;;7.00;6.30;;;27.80;68.20;;;;;;4996358;28;20192;-82
2022/07/25 06:45:06;;;;;;;10.38;6.38;;;28.10;65.80;;;;;;5010047;28;20033;-81
2022/07/25 06:47:32;;;;;;;9.30;6.85;;;28.50;66.10;;;;;;5030422;28;20022;-79
2022/07/25 06:49:58;;;;;;;7.13;6.43;;;28.70;63.40;;;;;;5033973;28;20051;-81
2022/07/25 06:52:23;;;;;;;7.07;6.38;;;28.80;62.00;;;;;;5021817;28;20041;-79
2022/07/25 06:54:49;;;;;;;7.88;6.57;;;29.00;61.70;;;;;;5045229;28;20105;-78
2022/07/25 06:57:15;;;;;;;6.53;5.82;;;29.20;60.30;;;;;;5037359;28;20097;-81
2022/07/25 06:59:41;;;;;;;7.90;6.32;;;29.30;60.40;;;;;;5031417;28;21644;-80
2022/07/25 07:02:07;;;;;;;7.40;6.25;;;29.40;60.00;;;;;;5017526;28;20030;-81
2022/07/25 07:04:32;;;;;;;7.13;6.43;;;29.70;59.00;;;;;;5031051;28;20488;-81
2022/07/25 07:06:58;;;;;;;8.13;5.55;;;29.80;57.80;;;;;;5026031;28;20029;-80
2022/07/25 07:09:24;;;;;;;8.18;6.35;;;30.00;58.60;;;;;;5030635;28;20575;-82
2022/07/25 07:11:50;;;;;;;7.18;6.47;;;30.40;56.60;;;;;;5028490;28;20672;-82
2022/07/25 07:14:15;;;;;;;10.18;8.60;;;30.70;57.40;;;;;;4992573;28;20029;-81
2022/07/25 07:16:41;;;;;;;6.10;5.50;;;31.10;56.50;;;;;;5031663;28;20037;-80
2022/07/25 07:19:09;;;;;;;6.43;5.80;;;31.40;54.80;;;;;;5025377;28;20052;-80
2022/07/25 07:21:36;;;;;;;6.43;5.68;;;31.60;54.40;;;;;;5028623;28;20025;-81
2022/07/25 07:24:01;;;;;;;6.68;5.82;;;31.90;53.60;;;;;;5033568;28;20060;-81
2022/07/25 07:26:27;;;;;;;6.65;6.05;;;32.20;53.10;;;;;;5032572;28;20029;-80
2022/07/25 07:28:54;;;;;;;6.43;5.82;;;32.20;51.30;;;;;;5031635;28;20500;-79
2022/07/25 07:31:20;;;;;;;8.05;6.63;;;31.90;51.00;;;;;;5039012;28;20034;-82
2022/07/25 07:33:46;;;;;;;6.28;5.68;;;31.50;51.60;;;;;;5035101;28;20079;-80
2022/07/25 07:36:12;;;;;;;6.88;5.82;;;31.50;52.20;;;;;;5019306;28;20030;-81
2022/07/25 07:38:38;;;;;;;7.90;5.90;;;31.40;51.80;;;;;;5015915;28;20048;-82
2022/07/25 07:41:04;;;;;;;6.60;6.00;;;31.40;52.50;;;;;;5027964;28;20037;-81
2022/07/25 07:43:30;;;;;;;8.55;6.30;;;31.60;52.50;;;;;;5040866;28;20034;-81
2022/07/25 07:45:59;;;;;;;6.90;5.82;;;31.70;52.00;;;;;;5027944;28;20033;-83
2022/07/25 07:48:26;;;;;;;9.70;6.55;;;31.90;51.40;;;;;;5031288;28;20033;-81
2022/07/25 07:50:51;;;;;;;6.70;6.00;;;32.20;51.30;;;;;;5036231;28;20029;-81
2022/07/25 07:53:17;;;;;;;5.90;5.40;;;32.50;50.00;;;;;;5036424;28;20225;-81
2022/07/25 07:55:44;;;;;;;6.72;5.45;;;32.80;50.30;;;;;;5040647;28;20017;-82
2022/07/25 07:58:16;;;;;;;6.07;5.50;;;32.70;49.00;;;;;;5026709;28;20422;-82
2022/07/25 08:00:46;;;;;;;5.93;5.32;;;32.80;50.20;;;;;;5011318;28;20087;-81
2022/07/25 08:03:16;;;;;;;6.10;5.22;;;33.00;50.30;;;;;;5034778;28;20033;-82
2022/07/25 08:05:44;;;;;;;6.13;5.55;;;33.10;49.30;;;;;;5037017;28;20388;-81
2022/07/25 08:08:12;;;;;;;5.93;5.32;;;33.00;48.40;;;;;;5048725;28;20289;-81
2022/07/25 08:10:42;;;;;;;5.53;5.03;;;32.60;48.30;;;;;;5041477;28;20088;-82
2022/07/25 08:13:15;;;;;;;6.70;5.90;;;32.50;49.20;;;;;;5043516;28;20033;-81
2022/07/25 08:15:42;;;;;;;6.20;5.43;;;32.30;49.50;;;;;;5036135;28;20029;-80
2022/07/25 08:18:08;;;;;;;6.03;5.43;;;32.20;48.60;;;;;;5045029;28;20029;-82
2022/07/25 08:20:34;;;;;;;6.13;5.53;;;32.20;50.40;;;;;;5040013;28;20025;-82
2022/07/25 08:23:01;;;;;;;7.38;5.57;;;32.10;50.60;;;;;;5032058;28;20037;-80
2022/07/25 08:25:26;;;;;;;7.00;4.80;;;32.10;50.40;;;;;;5033622;28;20037;-78
2022/07/25 08:27:52;;;;;;;6.13;5.22;;;32.00;51.10;;;;;;5036688;28;20059;-78
2022/07/25 08:30:18;;;;;;;6.72;6.13;;;32.00;50.30;;;;;;5038229;28;20032;-78
2022/07/25 08:32:58;;;;;;;6.32;5.72;;;31.70;48.50;;;;;;5048654;28;20557;-79
2022/07/25 08:35:26;;;;;;;6.15;5.55;;;31.60;48.70;;;;;;5039693;28;20061;-80
2022/07/25 08:37:53;;;;;;;6.97;5.57;;;31.40;49.20;;;;;;5052215;28;20036;-78
2022/07/25 08:40:20;;;;;;;6.32;5.45;;;31.30;49.10;;;;;;5050173;28;20484;-83
2022/07/25 08:42:48;;;;;;;6.65;5.85;;;31.20;50.20;;;;;;5043604;28;20033;-82
2022/07/25 08:45:16;;;;;;;6.78;5.57;;;31.10;50.00;;;;;;5041928;28;20036;-80
2022/07/25 08:47:43;;;;;;;7.88;5.53;;;31.10;50.40;;;;;;5041963;28;20060;-80
2022/07/25 08:50:11;;;;;;;5.97;5.43;;;31.00;49.60;;;;;;5029935;28;20047;-79
2022/07/25 08:52:38;;;;;;;6.65;6.00;;;30.80;50.40;;;;;;5043084;28;20031;-81
2022/07/25 08:55:06;;;;;;;7.57;6.00;;;30.60;50.50;;;;;;5055596;28;20033;-79
2022/07/25 08:57:33;;;;;;;6.32;5.57;;;30.50;51.20;;;;;;5040172;28;20029;-79
2022/07/25 08:59:59;;;;;;;6.50;5.90;;;30.50;50.80;;;;;;5052768;28;20029;-79
2022/07/25 09:02:26;;;;;;;6.15;5.55;;;30.50;50.50;;;;;;5048818;28;20164;-81
2022/07/25 09:04:53;;;;;;;7.85;5.68;;;30.40;50.70;;;;;;5039567;28;20049;-79
2022/07/25 09:07:38;;;;;;;6.82;5.57;;;30.40;50.30;;;;;;5037810;28;20057;-80
2022/07/25 09:10:16;;;;;;;7.97;5.80;;;30.30;49.60;;;;;;5037665;28;20021;-81
2022/07/25 09:13:02;;;;;;;6.43;5.82;;;30.40;49.70;;;;;;5033735;28;20034;-80
2022/07/25 09:15:41;;;;;;;5.68;5.15;;;30.40;49.40;;;;;;5037219;28;20049;-81
2022/07/25 09:18:12;;;;;;;6.25;5.65;;;30.40;49.90;;;;;;5027329;28;20054;-79
2022/07/25 09:20:54;;;;;;;6.25;5.55;;;30.40;48.00;;;;;;5039953;28;20025;-79
2022/07/25 09:23:36;;;;;;;5.80;5.30;;;30.50;48.00;;;;;;5038745;28;20033;-79
2022/07/25 09:26:05;;;;;;;10.05;4.72;;;30.40;48.30;;;;;;5037041;28;20484;-78
2022/07/25 09:28:40;;;;;;;5.28;4.85;;;30.30;48.40;;;;;;5043586;28;20025;-78
2022/07/25 09:31:06;;;;;;;7.55;5.63;;;30.30;48.70;;;;;;5026414;28;21116;-80
2022/07/25 09:33:31;;;;;;;5.60;5.10;;;30.40;48.80;;;;;;4994652;28;20578;-82
2022/07/25 09:35:57;;;;;;;6.22;5.57;;;30.40;50.00;;;;;;5034700;28;20036;-82
2022/07/25 09:38:24;;;;;;;6.55;5.13;;;30.60;49.70;;;;;;5037528;28;20030;-80
2022/07/25 09:41:01;;;;;;;5.95;5.28;;;30.60;49.30;;;;;;5018723;28;20041;-80
2022/07/25 09:43:37;;;;;;;6.05;5.53;;;30.70;48.00;;;;;;5027061;28;20056;-80
2022/07/25 09:46:04;;;;;;;5.95;5.05;;;30.80;48.40;;;;;;5021095;28;20036;-80
2022/07/25 09:48:30;;;;;;;5.22;4.72;;;30.80;49.40;;;;;;5025690;28;20026;-79
2022/07/25 09:50:57;;;;;;;5.47;4.97;;;30.80;48.80;;;;;;5021906;28;20026;-81
2022/07/25 09:53:24;;;;;;;11.02;5.22;;;30.90;49.10;;;;;;5032385;28;20049;-80
2022/07/25 09:55:52;;;;;;;9.00;5.45;;;30.90;48.50;;;;;;5026291;28;20037;-79
2022/07/25 09:58:18;;;;;;;6.55;5.55;;;31.10;48.80;;;;;;5028857;28;20063;-79
2022/07/25 10:00:44;;;;;;;7.07;5.40;;;31.10;47.70;;;;;;5026347;28;20017;-79
2022/07/25 10:03:36;;;;;;;6.07;5.18;;;31.20;48.20;;;;;;5030391;28;20729;-78
2022/07/25 10:06:08;;;;;;;5.18;4.68;;;31.20;47.70;;;;;;5020493;28;20029;-79
2022/07/25 10:08:38;;;;;;;5.80;5.18;;;31.20;48.10;;;;;;5028691;28;20076;-78
2022/07/25 10:11:16;;;;;;;9.02;5.85;;;31.20;49.60;;;;;;5034564;28;20025;-79
2022/07/25 10:13:42;;;;;;;5.80;5.28;;;31.10;46.60;;;;;;5035357;28;20053;-79
2022/07/25 10:16:16;;;;;;;5.95;5.45;;;31.10;46.70;;;;;;5003564;28;20061;-79
2022/07/25 10:18:48;;;;;;;8.23;5.60;;;31.00;47.60;;;;;;5027496;28;20064;-78
2022/07/25 10:21:14;;;;;;;5.63;4.95;;;31.00;46.80;;;;;;5024160;28;20064;-79
2022/07/25 10:23:40;;;;;;;5.65;5.07;;;31.00;47.60;;;;;;5030710;28;20128;-79
2022/07/25 10:26:12;;;;;;;5.50;4.95;;;31.10;49.40;;;;;;5032372;28;20030;-78
2022/07/25 10:28:41;;;;;;;6.00;5.47;;;31.20;47.50;;;;;;5036647;28;20040;-79
2022/07/25 10:31:14;;;;;;;5.63;4.88;;;31.20;46.20;;;;;;5035174;28;20033;-78
2022/07/25 10:33:41;;;;;;;6.05;5.55;;;31.20;46.80;;;;;;5035263;28;20396;-78
2022/07/25 10:36:09;;;;;;;6.82;5.13;;;31.20;47.80;;;;;;5034664;28;20097;-78
2022/07/25 10:38:39;;;;;;;7.72;5.45;;;31.20;46.50;;;;;;5041449;28;20039;-77
2022/07/25 10:41:07;;;;;;;6.40;5.43;;;31.40;48.20;;;;;;5019904;28;20026;-78
2022/07/25 10:43:38;;;;;;;8.05;5.53;;;31.40;46.90;;;;;;5045998;28;20487;-77
2022/07/25 10:46:13;;;;;;;5.95;5.32;;;31.50;47.20;;;;;;5032976;28;20037;-80
2022/07/25 10:48:39;;;;;;;5.88;5.38;;;31.60;46.80;;;;;;5035186;28;20055;-78
2022/07/25 10:51:07;;;;;;;5.60;5.10;;;31.70;45.40;;;;;;5039159;28;20158;-79
2022/07/25 10:53:37;;;;;;;5.72;5.13;;;31.70;46.10;;;;;;5038767;28;20038;-78
2022/07/25 10:56:22;;;;;;;6.20;5.60;;;31.70;46.90;;;;;;5034317;28;20026;-80
2022/07/25 10:59:00;;;;;;;7.30;5.53;;;31.80;45.00;;;;;;5030302;28;20372;-78
2022/07/25 11:01:31;;;;;;;6.25;5.65;;;31.90;46.90;;;;;;5034726;28;20096;-79
2022/07/25 11:04:02;;;;;;;6.00;5.47;;;31.90;44.60;;;;;;5017031;28;20052;-80
2022/07/25 11:06:39;;;;;;;7.38;5.60;;;31.90;44.80;;;;;;5032670;28;20451;-78
2022/07/25 11:09:17;;;;;;;7.75;5.30;;;32.00;46.10;;;;;;5031167;28;20516;-81
2022/07/25 11:11:47;;;;;;;6.18;4.82;;;32.10;47.30;;;;;;5038576;28;20101;-81
2022/07/25 11:14:38;;;;;;;5.88;5.22;;;32.20;44.80;;;;;;5041676;28;20140;-80
2022/07/25 11:17:22;;;;;;;6.05;5.10;;;32.20;44.90;;;;;;5037993;28;20034;-79
2022/07/25 11:19:58;;;;;;;5.57;5.07;;;32.30;44.70;;;;;;5042186;28;20945;-80
2022/07/25 11:22:25;;;;;;;5.85;5.25;;;32.40;43.90;;;;;;5036780;28;20037;-80
2022/07/25 11:24:51;;;;;;;5.45;5.05;;;32.50;46.80;;;;;;5050432;28;20044;-79
2022/07/25 11:27:24;;;;;;;5.28;4.82;;;32.40;43.90;;;;;;5037598;28;20093;-79
2022/07/25 11:29:50;;;;;;;6.07;4.90;;;32.50;43.60;;;;;;5040882;28;20885;-80
2022/07/25 11:32:16;;;;;;;6.28;5.18;;;32.60;45.70;;;;;;5039303;28;20040;-80
2022/07/25 11:34:53;;;;;;;6.00;5.40;;;32.70;44.30;;;;;;5032497;28;20038;-79
2022/07/25 11:37:19;;;;;;;6.45;5.43;;;32.70;45.20;;;;;;5036315;28;20040;-80
2022/07/25 11:39:46;;;;;;;5.45;4.95;;;32.90;44.10;;;;;;5035697;28;20079;-81
2022/07/25 11:42:15;;;;;;;5.40;4.90;;;33.00;43.70;;;;;;5039301;28;20083;-78
2022/07/25 11:44:45;;;;;;;7.55;5.47;;;33.10;44.00;;;;;;5042818;28;20042;-79
2022/07/25 11:47:23;;;;;;;5.10;4.65;;;33.10;43.40;;;;;;5033597;28;20022;-79
2022/07/25 11:49:50;;;;;;;5.80;5.30;;;33.10;43.40;;;;;;5037491;28;20139;-79
2022/07/25 11:52:24;;;;;;;5.70;5.20;;;33.20;43.50;;;;;;5014696;28;20100;-80
2022/07/25 11:54:55;;;;;;;6.03;5.53;;;33.20;41.20;;;;;;5039283;28;20049;-81
2022/07/25 11:57:24;;;;;;;5.90;5.30;;;33.30;41.90;;;;;;5033967;28;20021;-78
2022/07/25 11:59:50;;;;;;;5.95;5.45;;;33.10;41.10;;;;;;5037864;28;20052;-79
2022/07/25 12:02:31;;;;;;;7.63;5.25;;;33.20;41.50;;;;;;5021546;28;20052;-82
2022/07/25 12:05:05;;;;;;;5.40;4.80;;;33.30;43.70;;;;;;5028163;28;20519;-80
2022/07/25 12:07:34;;;;;;;5.97;5.37;;;33.40;44.20;;;;;;5031838;28;20025;-80
2022/07/25 12:10:00;;;;;;;5.18;4.68;;;33.60;43.60;;;;;;5045920;28;20037;-79
2022/07/25 12:12:25;;;;;;;5.22;4.70;;;33.60;42.30;;;;;;5032680;28;20096;-80
2022/07/25 12:14:51;;;;;;;5.85;5.25;;;33.70;41.40;;;;;;5036877;28;20106;-79
2022/07/25 12:17:17;;;;;;;4.95;4.50;;;33.80;40.30;;;;;;5016226;28;20025;-82
2022/07/25 12:19:46;;;;;;;5.05;4.65;;;33.90;42.10;;;;;;5025415;28;20064;-80
2022/07/25 12:22:12;;;;;;;4.80;4.40;;;34.10;41.70;;;;;;5013650;28;20026;-79
2022/07/25 12:24:38;;;;;;;5.78;5.15;;;34.10;41.50;;;;;;5027055;28;20507;-79
2022/07/25 12:27:04;;;;;;;5.10;4.70;;;34.10;42.30;;;;;;5014070;28;20029;-77
2022/07/25 12:29:30;;;;;;;5.85;5.22;;;34.30;42.00;;;;;;5009343;28;20670;-83
2022/07/25 12:31:55;;;;;;;6.40;5.80;;;34.40;41.30;;;;;;5014977;28;20260;-82
2022/07/25 12:34:21;;;;;;;4.80;4.40;;;34.60;40.30;;;;;;5026971;28;20049;-78
2022/07/25 12:36:47;;;;;;;6.05;5.45;;;34.80;42.10;;;;;;4993393;28;20423;-80
2022/07/25 12:39:13;;;;;;;5.78;5.18;;;35.00;40.60;;;;;;5025536;28;20114;-80
2022/07/25 12:41:41;;;;;;;7.18;5.63;;;35.10;40.70;;;;;;5018921;28;20036;-80
2022/07/25 12:44:07;;;;;;;6.38;5.10;;;35.10;41.00;;;;;;5032435;28;20030;-80